sensor_id;sensor_type;location;lat;lon;timestamp;P1;durP1;ratioP1;P2;durP2;ratioP2
46941;SDS011;32676;52.630;4.896;2024-01-07T00:00:48;10.07;;;5.38;;
46941;SDS011;32676;52.630;4.896;2024-01-07T00:03:14;11.43;;;6.40;;
46941;SDS011;32676;52.630;4.896;2024-01-07T00:05:41;9.75;;;6.32;;
46941;SDS011;32676;52.630;4.896;2024-01-07T00:08:08;9.88;;;4.90;;
46941;SDS011;32676;52.630;4.896;2024-01-07T00:10:34;7.38;;;4.60;;
46941;SDS011;32676;52.630;4.896;2024-01-07T00:13:01;11.60;;;5.70;;
46941;SDS011;32676;52.630;4.896;2024-01-07T00:15:30;10.32;;;5.63;;
46941;SDS011;32676;52.630;4.896;2024-01-07T00:17:58;11.70;;;5.88;;
46941;SDS011;32676;52.630;4.896;2024-01-07T00:20:25;11.32;;;5.88;;
46941;SDS011;32676;52.630;4.896;2024-01-07T00:22:51;11.18;;;5.75;;
46941;SDS011;32676;52.630;4.896;2024-01-07T00:25:17;9.68;;;6.07;;
46941;SDS011;32676;52.630;4.896;2024-01-07T00:27:44;12.70;;;6.13;;
46941;SDS011;32676;52.630;4.896;2024-01-07T00:30:11;11.57;;;6.38;;
46941;SDS011;32676;52.630;4.896;2024-01-07T00:32:37;13.75;;;5.43;;
46941;SDS011;32676;52.630;4.896;2024-01-07T00:35:06;12.32;;;5.65;;
46941;SDS011;32676;52.630;4.896;2024-01-07T00:37:32;11.38;;;5.13;;
46941;SDS011;32676;52.630;4.896;2024-01-07T00:40:00;10.93;;;5.95;;
46941;SDS011;32676;52.630;4.896;2024-01-07T00:42:26;10.20;;;5.50;;
46941;SDS011;32676;52.630;4.896;2024-01-07T00:44:53;14.93;;;7.72;;
46941;SDS011;32676;52.630;4.896;2024-01-07T00:47:19;15.63;;;8.02;;
46941;SDS011;32676;52.630;4.896;2024-01-07T00:49:46;12.10;;;5.68;;
46941;SDS011;32676;52.630;4.896;2024-01-07T00:52:14;11.88;;;6.05;;
46941;SDS011;32676;52.630;4.896;2024-01-07T00:54:40;10.13;;;6.13;;
46941;SDS011;32676;52.630;4.896;2024-01-07T00:57:06;9.13;;;5.65;;
46941;SDS011;32676;52.630;4.896;2024-01-07T00:59:33;13.98;;;7.55;;
46941;SDS011;32676;52.630;4.896;2024-01-07T01:01:59;12.77;;;7.88;;
46941;SDS011;32676;52.630;4.896;2024-01-07T01:04:26;12.05;;;6.65;;
46941;SDS011;32676;52.630;4.896;2024-01-07T01:06:52;13.63;;;6.95;;
46941;SDS011;32676;52.630;4.896;2024-01-07T01:09:20;9.10;;;5.95;;
46941;SDS011;32676;52.630;4.896;2024-01-07T01:11:47;12.05;;;7.40;;
46941;SDS011;32676;52.630;4.896;2024-01-07T01:14:14;13.70;;;6.65;;
46941;SDS011;32676;52.630;4.896;2024-01-07T01:16:41;13.23;;;6.32;;
46941;SDS011;32676;52.630;4.896;2024-01-07T01:19:07;14.02;;;6.65;;
46941;SDS011;32676;52.630;4.896;2024-01-07T01:21:34;12.63;;;6.57;;
46941;SDS011;32676;52.630;4.896;2024-01-07T01:24:01;13.90;;;7.30;;
46941;SDS011;32676;52.630;4.896;2024-01-07T01:26:28;11.23;;;6.90;;
46941;SDS011;32676;52.630;4.896;2024-01-07T01:28:55;11.20;;;5.75;;
46941;SDS011;32676;52.630;4.896;2024-01-07T01:31:21;14.45;;;7.90;;
46941;SDS011;32676;52.630;4.896;2024-01-07T01:33:48;16.27;;;9.75;;
46941;SDS011;32676;52.630;4.896;2024-01-07T01:36:14;14.98;;;8.65;;
46941;SDS011;32676;52.630;4.896;2024-01-07T01:38:41;13.05;;;7.47;;
46941;SDS011;32676;52.630;4.896;2024-01-07T01:41:07;10.60;;;5.40;;
46941;SDS011;32676;52.630;4.896;2024-01-07T01:43:35;14.77;;;8.48;;
46941;SDS011;32676;52.630;4.896;2024-01-07T01:46:02;13.52;;;6.32;;
46941;SDS011;32676;52.630;4.896;2024-01-07T01:48:29;15.02;;;7.85;;
46941;SDS011;32676;52.630;4.896;2024-01-07T01:50:57;13.32;;;7.72;;
46941;SDS011;32676;52.630;4.896;2024-01-07T01:53:24;11.00;;;7.03;;
46941;SDS011;32676;52.630;4.896;2024-01-07T01:55:51;15.68;;;6.50;;
46941;SDS011;32676;52.630;4.896;2024-01-07T01:58:19;12.52;;;5.97;;
46941;SDS011;32676;52.630;4.896;2024-01-07T02:00:47;11.75;;;6.75;;
46941;SDS011;32676;52.630;4.896;2024-01-07T02:03:15;11.70;;;6.03;;
46941;SDS011;32676;52.630;4.896;2024-01-07T02:05:42;11.60;;;5.88;;
46941;SDS011;32676;52.630;4.896;2024-01-07T02:08:09;19.38;;;10.63;;
46941;SDS011;32676;52.630;4.896;2024-01-07T02:10:37;13.88;;;7.82;;
46941;SDS011;32676;52.630;4.896;2024-01-07T02:13:04;10.63;;;6.28;;
46941;SDS011;32676;52.630;4.896;2024-01-07T02:15:30;17.27;;;8.82;;
46941;SDS011;32676;52.630;4.896;2024-01-07T02:17:58;16.02;;;6.88;;
46941;SDS011;32676;52.630;4.896;2024-01-07T02:20:24;18.38;;;8.73;;
46941;SDS011;32676;52.630;4.896;2024-01-07T02:22:51;13.20;;;7.35;;
46941;SDS011;32676;52.630;4.896;2024-01-07T02:25:19;14.40;;;6.80;;
46941;SDS011;32676;52.630;4.896;2024-01-07T02:27:46;14.57;;;7.15;;
46941;SDS011;32676;52.630;4.896;2024-01-07T02:30:13;24.85;;;16.27;;
46941;SDS011;32676;52.630;4.896;2024-01-07T02:32:39;17.55;;;12.18;;
46941;SDS011;32676;52.630;4.896;2024-01-07T02:35:06;13.13;;;7.35;;
46941;SDS011;32676;52.630;4.896;2024-01-07T02:37:33;20.00;;;11.95;;
46941;SDS011;32676;52.630;4.896;2024-01-07T02:40:00;14.15;;;8.23;;
46941;SDS011;32676;52.630;4.896;2024-01-07T02:42:29;13.52;;;6.78;;
46941;SDS011;32676;52.630;4.896;2024-01-07T02:44:56;10.82;;;6.97;;
46941;SDS011;32676;52.630;4.896;2024-01-07T02:47:22;11.40;;;6.85;;
46941;SDS011;32676;52.630;4.896;2024-01-07T02:49:49;18.00;;;7.22;;
46941;SDS011;32676;52.630;4.896;2024-01-07T02:52:16;13.07;;;7.75;;
46941;SDS011;32676;52.630;4.896;2024-01-07T02:54:42;12.50;;;6.93;;
46941;SDS011;32676;52.630;4.896;2024-01-07T02:57:09;14.73;;;7.78;;
46941;SDS011;32676;52.630;4.896;2024-01-07T02:59:36;13.45;;;8.07;;
46941;SDS011;32676;52.630;4.896;2024-01-07T03:02:03;14.63;;;6.18;;
46941;SDS011;32676;52.630;4.896;2024-01-07T03:04:29;11.02;;;6.38;;
46941;SDS011;32676;52.630;4.896;2024-01-07T03:06:56;10.38;;;5.82;;
46941;SDS011;32676;52.630;4.896;2024-01-07T03:09:22;9.90;;;5.45;;
46941;SDS011;32676;52.630;4.896;2024-01-07T03:11:49;13.75;;;5.97;;
46941;SDS011;32676;52.630;4.896;2024-01-07T03:14:15;11.48;;;5.70;;
46941;SDS011;32676;52.630;4.896;2024-01-07T03:16:46;11.27;;;7.15;;
46941;SDS011;32676;52.630;4.896;2024-01-07T03:19:13;10.10;;;5.47;;
46941;SDS011;32676;52.630;4.896;2024-01-07T03:21:39;10.82;;;6.47;;
46941;SDS011;32676;52.630;4.896;2024-01-07T03:24:06;8.85;;;4.72;;
46941;SDS011;32676;52.630;4.896;2024-01-07T03:26:33;10.70;;;6.55;;
46941;SDS011;32676;52.630;4.896;2024-01-07T03:28:59;13.20;;;5.85;;
46941;SDS011;32676;52.630;4.896;2024-01-07T03:31:27;11.20;;;5.75;;
46941;SDS011;32676;52.630;4.896;2024-01-07T03:33:55;14.43;;;5.82;;
46941;SDS011;32676;52.630;4.896;2024-01-07T03:36:22;9.98;;;5.32;;
46941;SDS011;32676;52.630;4.896;2024-01-07T03:38:49;10.63;;;5.47;;
46941;SDS011;32676;52.630;4.896;2024-01-07T03:41:16;7.68;;;4.55;;
46941;SDS011;32676;52.630;4.896;2024-01-07T03:43:44;9.95;;;5.95;;
46941;SDS011;32676;52.630;4.896;2024-01-07T03:46:10;9.45;;;5.65;;
46941;SDS011;32676;52.630;4.896;2024-01-07T03:48:37;7.70;;;4.75;;
46941;SDS011;32676;52.630;4.896;2024-01-07T03:51:05;11.75;;;6.90;;
46941;SDS011;32676;52.630;4.896;2024-01-07T03:53:32;10.05;;;6.18;;
46941;SDS011;32676;52.630;4.896;2024-01-07T03:55:58;11.82;;;6.60;;
46941;SDS011;32676;52.630;4.896;2024-01-07T03:58:25;12.07;;;5.18;;
46941;SDS011;32676;52.630;4.896;2024-01-07T04:00:51;11.13;;;6.57;;
46941;SDS011;32676;52.630;4.896;2024-01-07T04:03:18;10.23;;;6.28;;
46941;SDS011;32676;52.630;4.896;2024-01-07T04:05:44;9.32;;;5.75;;
46941;SDS011;32676;52.630;4.896;2024-01-07T04:08:12;9.77;;;5.35;;
46941;SDS011;32676;52.630;4.896;2024-01-07T04:10:40;12.80;;;5.68;;
46941;SDS011;32676;52.630;4.896;2024-01-07T04:13:07;10.10;;;5.72;;
46941;SDS011;32676;52.630;4.896;2024-01-07T04:15:34;10.38;;;5.72;;
46941;SDS011;32676;52.630;4.896;2024-01-07T04:18:01;9.82;;;5.55;;
46941;SDS011;32676;52.630;4.896;2024-01-07T04:20:28;11.07;;;5.22;;
46941;SDS011;32676;52.630;4.896;2024-01-07T04:22:55;12.75;;;5.25;;
46941;SDS011;32676;52.630;4.896;2024-01-07T04:25:23;9.60;;;5.53;;
46941;SDS011;32676;52.630;4.896;2024-01-07T04:27:50;9.68;;;5.35;;
46941;SDS011;32676;52.630;4.896;2024-01-07T04:30:16;9.85;;;5.70;;
46941;SDS011;32676;52.630;4.896;2024-01-07T04:32:43;9.38;;;5.00;;
46941;SDS011;32676;52.630;4.896;2024-01-07T04:35:09;14.27;;;4.88;;
46941;SDS011;32676;52.630;4.896;2024-01-07T04:37:36;10.45;;;6.60;;
46941;SDS011;32676;52.630;4.896;2024-01-07T04:40:03;13.30;;;6.50;;
46941;SDS011;32676;52.630;4.896;2024-01-07T04:42:32;13.35;;;6.43;;
46941;SDS011;32676;52.630;4.896;2024-01-07T04:44:58;12.45;;;6.68;;
46941;SDS011;32676;52.630;4.896;2024-01-07T04:47:28;11.20;;;5.55;;
46941;SDS011;32676;52.630;4.896;2024-01-07T04:49:56;12.63;;;7.13;;
46941;SDS011;32676;52.630;4.896;2024-01-07T04:52:23;9.50;;;6.00;;
46941;SDS011;32676;52.630;4.896;2024-01-07T04:54:50;14.60;;;5.93;;
46941;SDS011;32676;52.630;4.896;2024-01-07T04:57:17;10.75;;;5.93;;
46941;SDS011;32676;52.630;4.896;2024-01-07T04:59:45;12.75;;;5.97;;
46941;SDS011;32676;52.630;4.896;2024-01-07T05:02:12;10.05;;;5.75;;
46941;SDS011;32676;52.630;4.896;2024-01-07T05:04:38;12.70;;;6.40;;
46941;SDS011;32676;52.630;4.896;2024-01-07T05:07:05;11.32;;;5.25;;
46941;SDS011;32676;52.630;4.896;2024-01-07T05:09:32;11.15;;;5.70;;
46941;SDS011;32676;52.630;4.896;2024-01-07T05:11:58;12.35;;;7.05;;
46941;SDS011;32676;52.630;4.896;2024-01-07T05:14:25;10.88;;;5.53;;
46941;SDS011;32676;52.630;4.896;2024-01-07T05:16:54;18.38;;;8.18;;
46941;SDS011;32676;52.630;4.896;2024-01-07T05:19:21;12.13;;;4.85;;
46941;SDS011;32676;52.630;4.896;2024-01-07T05:21:47;7.28;;;4.03;;
46941;SDS011;32676;52.630;4.896;2024-01-07T05:24:14;11.98;;;4.68;;
46941;SDS011;32676;52.630;4.896;2024-01-07T05:26:41;7.35;;;4.18;;
46941;SDS011;32676;52.630;4.896;2024-01-07T05:29:09;10.57;;;5.05;;
46941;SDS011;32676;52.630;4.896;2024-01-07T05:31:36;13.23;;;4.30;;
46941;SDS011;32676;52.630;4.896;2024-01-07T05:34:04;12.20;;;4.65;;
46941;SDS011;32676;52.630;4.896;2024-01-07T05:36:31;6.53;;;2.88;;
46941;SDS011;32676;52.630;4.896;2024-01-07T05:38:57;11.95;;;4.18;;
46941;SDS011;32676;52.630;4.896;2024-01-07T05:41:24;10.15;;;3.35;;
46941;SDS011;32676;52.630;4.896;2024-01-07T05:43:50;10.57;;;3.95;;
46941;SDS011;32676;52.630;4.896;2024-01-07T05:46:17;12.38;;;5.80;;
46941;SDS011;32676;52.630;4.896;2024-01-07T05:48:44;10.10;;;4.43;;
46941;SDS011;32676;52.630;4.896;2024-01-07T05:51:13;13.00;;;6.05;;
46941;SDS011;32676;52.630;4.896;2024-01-07T05:53:40;10.27;;;4.35;;
46941;SDS011;32676;52.630;4.896;2024-01-07T05:56:06;16.13;;;6.07;;
46941;SDS011;32676;52.630;4.896;2024-01-07T05:58:33;9.13;;;4.80;;
46941;SDS011;32676;52.630;4.896;2024-01-07T06:00:59;10.38;;;4.82;;
46941;SDS011;32676;52.630;4.896;2024-01-07T06:03:26;7.75;;;3.83;;
46941;SDS011;32676;52.630;4.896;2024-01-07T06:05:53;9.05;;;4.15;;
46941;SDS011;32676;52.630;4.896;2024-01-07T06:08:20;9.85;;;4.10;;
46941;SDS011;32676;52.630;4.896;2024-01-07T06:10:47;7.05;;;3.22;;
46941;SDS011;32676;52.630;4.896;2024-01-07T06:13:13;8.25;;;3.38;;
46941;SDS011;32676;52.630;4.896;2024-01-07T06:15:40;6.85;;;3.50;;
46941;SDS011;32676;52.630;4.896;2024-01-07T06:18:06;6.10;;;2.53;;
46941;SDS011;32676;52.630;4.896;2024-01-07T06:20:33;5.90;;;3.38;;
46941;SDS011;32676;52.630;4.896;2024-01-07T06:22:59;9.02;;;4.68;;
46941;SDS011;32676;52.630;4.896;2024-01-07T06:25:27;9.88;;;3.60;;
46941;SDS011;32676;52.630;4.896;2024-01-07T06:27:54;4.88;;;3.17;;
46941;SDS011;32676;52.630;4.896;2024-01-07T06:30:21;5.78;;;2.45;;
46941;SDS011;32676;52.630;4.896;2024-01-07T06:32:47;8.57;;;4.22;;
46941;SDS011;32676;52.630;4.896;2024-01-07T06:35:14;6.03;;;2.88;;
46941;SDS011;32676;52.630;4.896;2024-01-07T06:37:41;7.43;;;3.78;;
46941;SDS011;32676;52.630;4.896;2024-01-07T06:40:08;7.10;;;3.38;;
46941;SDS011;32676;52.630;4.896;2024-01-07T06:42:37;6.63;;;3.05;;
46941;SDS011;32676;52.630;4.896;2024-01-07T06:45:04;7.88;;;2.80;;
46941;SDS011;32676;52.630;4.896;2024-01-07T06:47:31;7.38;;;3.92;;
46941;SDS011;32676;52.630;4.896;2024-01-07T06:49:58;14.27;;;5.05;;
46941;SDS011;32676;52.630;4.896;2024-01-07T06:52:24;6.25;;;3.00;;
46941;SDS011;32676;52.630;4.896;2024-01-07T06:54:51;5.68;;;2.17;;
46941;SDS011;32676;52.630;4.896;2024-01-07T06:57:17;8.68;;;4.15;;
46941;SDS011;32676;52.630;4.896;2024-01-07T06:59:45;7.18;;;2.92;;
46941;SDS011;32676;52.630;4.896;2024-01-07T07:02:12;8.27;;;4.18;;
46941;SDS011;32676;52.630;4.896;2024-01-07T07:04:39;8.55;;;3.35;;
46941;SDS011;32676;52.630;4.896;2024-01-07T07:07:04;8.57;;;4.32;;
46941;SDS011;32676;52.630;4.896;2024-01-07T07:09:31;10.63;;;3.10;;
46941;SDS011;32676;52.630;4.896;2024-01-07T07:11:58;5.35;;;2.65;;
46941;SDS011;32676;52.630;4.896;2024-01-07T07:14:24;8.77;;;3.33;;
46941;SDS011;32676;52.630;4.896;2024-01-07T07:16:52;9.20;;;4.18;;
46941;SDS011;32676;52.630;4.896;2024-01-07T07:19:19;10.55;;;2.35;;
46941;SDS011;32676;52.630;4.896;2024-01-07T07:21:45;5.00;;;2.55;;
46941;SDS011;32676;52.630;4.896;2024-01-07T07:24:11;4.95;;;2.05;;
46941;SDS011;32676;52.630;4.896;2024-01-07T07:26:38;3.35;;;1.50;;
46941;SDS011;32676;52.630;4.896;2024-01-07T07:29:06;4.45;;;1.92;;
46941;SDS011;32676;52.630;4.896;2024-01-07T07:31:34;4.70;;;1.85;;
46941;SDS011;32676;52.630;4.896;2024-01-07T07:34:03;5.93;;;2.35;;
46941;SDS011;32676;52.630;4.896;2024-01-07T07:36:29;4.15;;;2.03;;
46941;SDS011;32676;52.630;4.896;2024-01-07T07:38:56;7.00;;;2.70;;
46941;SDS011;32676;52.630;4.896;2024-01-07T07:41:22;7.15;;;4.80;;
46941;SDS011;32676;52.630;4.896;2024-01-07T07:43:49;7.05;;;2.60;;
46941;SDS011;32676;52.630;4.896;2024-01-07T07:46:15;7.65;;;4.13;;
46941;SDS011;32676;52.630;4.896;2024-01-07T07:48:42;7.45;;;3.78;;
46941;SDS011;32676;52.630;4.896;2024-01-07T07:51:10;7.22;;;2.70;;
46941;SDS011;32676;52.630;4.896;2024-01-07T07:53:37;17.25;;;4.55;;
46941;SDS011;32676;52.630;4.896;2024-01-07T07:56:05;7.90;;;2.63;;
46941;SDS011;32676;52.630;4.896;2024-01-07T07:58:32;9.07;;;2.38;;
46941;SDS011;32676;52.630;4.896;2024-01-07T08:00:59;5.93;;;2.22;;
46941;SDS011;32676;52.630;4.896;2024-01-07T08:03:25;3.58;;;1.80;;
46941;SDS011;32676;52.630;4.896;2024-01-07T08:05:52;6.95;;;2.15;;
46941;SDS011;32676;52.630;4.896;2024-01-07T08:08:20;5.35;;;1.90;;
46941;SDS011;32676;52.630;4.896;2024-01-07T08:10:46;6.55;;;2.92;;
46941;SDS011;32676;52.630;4.896;2024-01-07T08:13:12;5.10;;;2.20;;
46941;SDS011;32676;52.630;4.896;2024-01-07T08:15:38;8.77;;;2.13;;
46941;SDS011;32676;52.630;4.896;2024-01-07T08:18:05;3.83;;;2.45;;
46941;SDS011;32676;52.630;4.896;2024-01-07T08:20:31;9.45;;;2.40;;
46941;SDS011;32676;52.630;4.896;2024-01-07T08:22:58;9.32;;;3.38;;
46941;SDS011;32676;52.630;4.896;2024-01-07T08:25:27;5.78;;;2.08;;
46941;SDS011;32676;52.630;4.896;2024-01-07T08:27:53;7.72;;;2.28;;
46941;SDS011;32676;52.630;4.896;2024-01-07T08:30:20;4.50;;;1.58;;
46941;SDS011;32676;52.630;4.896;2024-01-07T08:32:46;5.32;;;2.00;;
46941;SDS011;32676;52.630;4.896;2024-01-07T08:35:13;7.05;;;2.25;;
46941;SDS011;32676;52.630;4.896;2024-01-07T08:37:39;13.73;;;5.13;;
46941;SDS011;32676;52.630;4.896;2024-01-07T08:40:07;12.00;;;5.80;;
46941;SDS011;32676;52.630;4.896;2024-01-07T08:42:37;3.92;;;1.55;;
46941;SDS011;32676;52.630;4.896;2024-01-07T08:45:07;12.23;;;3.90;;
46941;SDS011;32676;52.630;4.896;2024-01-07T08:47:34;9.63;;;3.13;;
46941;SDS011;32676;52.630;4.896;2024-01-07T08:50:02;24.92;;;8.90;;
46941;SDS011;32676;52.630;4.896;2024-01-07T08:52:29;36.63;;;15.23;;
46941;SDS011;32676;52.630;4.896;2024-01-07T08:54:56;17.17;;;9.00;;
46941;SDS011;32676;52.630;4.896;2024-01-07T08:57:24;6.68;;;2.53;;
46941;SDS011;32676;52.630;4.896;2024-01-07T08:59:52;13.07;;;3.55;;
46941;SDS011;32676;52.630;4.896;2024-01-07T09:02:18;2.80;;;1.20;;
46941;SDS011;32676;52.630;4.896;2024-01-07T09:04:45;9.32;;;2.20;;
46941;SDS011;32676;52.630;4.896;2024-01-07T09:07:11;4.78;;;2.13;;
46941;SDS011;32676;52.630;4.896;2024-01-07T09:09:41;4.20;;;1.63;;
46941;SDS011;32676;52.630;4.896;2024-01-07T09:12:08;5.95;;;2.00;;
46941;SDS011;32676;52.630;4.896;2024-01-07T09:14:34;2.78;;;1.08;;
46941;SDS011;32676;52.630;4.896;2024-01-07T09:17:04;5.00;;;1.65;;
46941;SDS011;32676;52.630;4.896;2024-01-07T09:19:31;5.90;;;1.02;;
46941;SDS011;32676;52.630;4.896;2024-01-07T09:21:57;5.60;;;1.80;;
46941;SDS011;32676;52.630;4.896;2024-01-07T09:24:24;6.72;;;2.05;;
46941;SDS011;32676;52.630;4.896;2024-01-07T09:26:50;4.80;;;1.83;;
46941;SDS011;32676;52.630;4.896;2024-01-07T09:29:17;6.35;;;2.10;;
46941;SDS011;32676;52.630;4.896;2024-01-07T09:31:43;5.85;;;1.10;;
46941;SDS011;32676;52.630;4.896;2024-01-07T09:34:11;8.07;;;1.83;;
46941;SDS011;32676;52.630;4.896;2024-01-07T09:36:38;4.13;;;2.08;;
46941;SDS011;32676;52.630;4.896;2024-01-07T09:39:04;3.42;;;0.80;;
46941;SDS011;32676;52.630;4.896;2024-01-07T09:41:31;7.28;;;1.45;;
46941;SDS011;32676;52.630;4.896;2024-01-07T09:43:59;4.88;;;0.93;;
46941;SDS011;32676;52.630;4.896;2024-01-07T09:46:26;2.47;;;1.00;;
46941;SDS011;32676;52.630;4.896;2024-01-07T09:48:55;2.45;;;1.00;;
46941;SDS011;32676;52.630;4.896;2024-01-07T09:51:23;7.22;;;1.63;;
46941;SDS011;32676;52.630;4.896;2024-01-07T09:53:50;4.63;;;0.90;;
46941;SDS011;32676;52.630;4.896;2024-01-07T09:56:24;3.10;;;1.25;;
46941;SDS011;32676;52.630;4.896;2024-01-07T09:58:52;8.05;;;1.55;;
46941;SDS011;32676;52.630;4.896;2024-01-07T10:01:18;2.60;;;0.90;;
46941;SDS011;32676;52.630;4.896;2024-01-07T10:03:45;3.63;;;0.80;;
46941;SDS011;32676;52.630;4.896;2024-01-07T10:06:12;3.15;;;1.08;;
46941;SDS011;32676;52.630;4.896;2024-01-07T10:08:40;3.38;;;1.00;;
46941;SDS011;32676;52.630;4.896;2024-01-07T10:11:06;8.57;;;3.17;;
46941;SDS011;32676;52.630;4.896;2024-01-07T10:13:34;2.60;;;1.00;;
46941;SDS011;32676;52.630;4.896;2024-01-07T10:16:01;6.13;;;1.85;;
46941;SDS011;32676;52.630;4.896;2024-01-07T10:18:27;3.45;;;1.70;;
46941;SDS011;32676;52.630;4.896;2024-01-07T10:20:56;3.70;;;1.15;;
46941;SDS011;32676;52.630;4.896;2024-01-07T10:23:28;3.13;;;1.23;;
46941;SDS011;32676;52.630;4.896;2024-01-07T10:25:56;2.08;;;0.85;;
46941;SDS011;32676;52.630;4.896;2024-01-07T10:28:23;3.30;;;0.95;;
46941;SDS011;32676;52.630;4.896;2024-01-07T10:30:50;6.57;;;2.15;;
46941;SDS011;32676;52.630;4.896;2024-01-07T10:33:17;5.93;;;1.30;;
46941;SDS011;32676;52.630;4.896;2024-01-07T10:35:45;3.08;;;1.20;;
46941;SDS011;32676;52.630;4.896;2024-01-07T10:38:18;2.58;;;0.73;;
46941;SDS011;32676;52.630;4.896;2024-01-07T10:40:47;3.42;;;1.02;;
46941;SDS011;32676;52.630;4.896;2024-01-07T10:43:19;4.53;;;1.50;;
46941;SDS011;32676;52.630;4.896;2024-01-07T10:45:47;3.70;;;0.95;;
46941;SDS011;32676;52.630;4.896;2024-01-07T10:48:14;5.43;;;0.82;;
46941;SDS011;32676;52.630;4.896;2024-01-07T10:50:44;5.05;;;1.08;;
46941;SDS011;32676;52.630;4.896;2024-01-07T10:53:13;1.83;;;0.65;;
46941;SDS011;32676;52.630;4.896;2024-01-07T10:55:44;1.92;;;0.68;;
46941;SDS011;32676;52.630;4.896;2024-01-07T10:58:20;1.70;;;0.40;;
46941;SDS011;32676;52.630;4.896;2024-01-07T11:00:47;0.93;;;0.45;;
46941;SDS011;32676;52.630;4.896;2024-01-07T11:03:17;2.00;;;0.52;;
46941;SDS011;32676;52.630;4.896;2024-01-07T11:05:47;3.20;;;0.50;;
46941;SDS011;32676;52.630;4.896;2024-01-07T11:08:18;1.83;;;0.55;;
46941;SDS011;32676;52.630;4.896;2024-01-07T11:10:48;5.75;;;0.90;;
46941;SDS011;32676;52.630;4.896;2024-01-07T11:16:06;1.17;;;0.70;;
46941;SDS011;32676;52.630;4.896;2024-01-07T11:18:37;3.72;;;0.68;;
46941;SDS011;32676;52.630;4.896;2024-01-07T11:21:06;4.85;;;0.80;;
46941;SDS011;32676;52.630;4.896;2024-01-07T11:23:33;4.88;;;0.80;;
46941;SDS011;32676;52.630;4.896;2024-01-07T11:26:02;1.02;;;0.60;;
46941;SDS011;32676;52.630;4.896;2024-01-07T11:28:43;10.57;;;1.00;;
46941;SDS011;32676;52.630;4.896;2024-01-07T11:31:15;6.93;;;2.33;;
46941;SDS011;32676;52.630;4.896;2024-01-07T11:33:43;2.35;;;0.55;;
46941;SDS011;32676;52.630;4.896;2024-01-07T11:36:10;2.90;;;0.70;;
46941;SDS011;32676;52.630;4.896;2024-01-07T11:38:37;4.75;;;1.05;;
46941;SDS011;32676;52.630;4.896;2024-01-07T11:41:04;1.75;;;0.45;;
46941;SDS011;32676;52.630;4.896;2024-01-07T11:43:32;2.47;;;0.80;;
46941;SDS011;32676;52.630;4.896;2024-01-07T11:46:00;3.53;;;0.85;;
46941;SDS011;32676;52.630;4.896;2024-01-07T11:48:27;3.25;;;0.70;;
46941;SDS011;32676;52.630;4.896;2024-01-07T11:50:54;1.55;;;0.60;;
46941;SDS011;32676;52.630;4.896;2024-01-07T11:53:20;2.95;;;0.80;;
46941;SDS011;32676;52.630;4.896;2024-01-07T11:55:48;4.55;;;0.77;;
46941;SDS011;32676;52.630;4.896;2024-01-07T11:58:14;2.10;;;0.77;;
46941;SDS011;32676;52.630;4.896;2024-01-07T12:00:40;7.03;;;1.02;;
46941;SDS011;32676;52.630;4.896;2024-01-07T12:03:08;3.05;;;1.13;;
46941;SDS011;32676;52.630;4.896;2024-01-07T12:05:35;4.97;;;1.65;;
46941;SDS011;32676;52.630;4.896;2024-01-07T12:08:01;4.32;;;1.10;;
46941;SDS011;32676;52.630;4.896;2024-01-07T12:10:28;2.33;;;0.60;;
46941;SDS011;32676;52.630;4.896;2024-01-07T12:12:55;2.45;;;0.70;;
46941;SDS011;32676;52.630;4.896;2024-01-07T12:15:22;7.45;;;3.70;;
46941;SDS011;32676;52.630;4.896;2024-01-07T12:17:55;2.58;;;0.82;;
46941;SDS011;32676;52.630;4.896;2024-01-07T12:20:24;7.53;;;1.70;;
46941;SDS011;32676;52.630;4.896;2024-01-07T12:22:51;3.65;;;1.70;;
46941;SDS011;32676;52.630;4.896;2024-01-07T12:25:21;3.92;;;1.70;;
46941;SDS011;32676;52.630;4.896;2024-01-07T12:27:49;7.38;;;4.47;;
46941;SDS011;32676;52.630;4.896;2024-01-07T12:30:18;1.98;;;0.90;;
46941;SDS011;32676;52.630;4.896;2024-01-07T12:32:45;40.00;;;4.85;;
46941;SDS011;32676;52.630;4.896;2024-01-07T12:35:11;1.63;;;0.70;;
46941;SDS011;32676;52.630;4.896;2024-01-07T12:37:40;4.55;;;0.82;;
46941;SDS011;32676;52.630;4.896;2024-01-07T12:40:08;3.17;;;1.10;;
46941;SDS011;32676;52.630;4.896;2024-01-07T12:42:36;1.80;;;0.80;;
46941;SDS011;32676;52.630;4.896;2024-01-07T12:45:05;4.50;;;0.70;;
46941;SDS011;32676;52.630;4.896;2024-01-07T12:47:32;2.90;;;0.50;;
46941;SDS011;32676;52.630;4.896;2024-01-07T12:50:00;8.30;;;4.82;;
46941;SDS011;32676;52.630;4.896;2024-01-07T12:52:26;6.38;;;3.85;;
46941;SDS011;32676;52.630;4.896;2024-01-07T12:54:54;3.05;;;1.55;;
46941;SDS011;32676;52.630;4.896;2024-01-07T12:57:22;21.90;;;5.15;;
46941;SDS011;32676;52.630;4.896;2024-01-07T12:59:48;2.58;;;1.50;;
46941;SDS011;32676;52.630;4.896;2024-01-07T13:02:15;2.80;;;0.70;;
46941;SDS011;32676;52.630;4.896;2024-01-07T13:04:41;3.38;;;0.80;;
46941;SDS011;32676;52.630;4.896;2024-01-07T13:07:08;5.68;;;3.47;;
46941;SDS011;32676;52.630;4.896;2024-01-07T13:09:34;12.07;;;5.18;;
46941;SDS011;32676;52.630;4.896;2024-01-07T13:12:02;4.90;;;2.25;;
46941;SDS011;32676;52.630;4.896;2024-01-07T13:14:30;8.07;;;1.95;;
46941;SDS011;32676;52.630;4.896;2024-01-07T13:16:56;15.20;;;9.15;;
46941;SDS011;32676;52.630;4.896;2024-01-07T13:19:23;3.90;;;0.80;;
46941;SDS011;32676;52.630;4.896;2024-01-07T13:21:51;5.55;;;0.98;;
46941;SDS011;32676;52.630;4.896;2024-01-07T13:24:20;3.53;;;1.73;;
46941;SDS011;32676;52.630;4.896;2024-01-07T13:26:46;3.05;;;0.85;;
46941;SDS011;32676;52.630;4.896;2024-01-07T13:29:14;2.75;;;1.35;;
46941;SDS011;32676;52.630;4.896;2024-01-07T13:31:41;2.55;;;0.80;;
46941;SDS011;32676;52.630;4.896;2024-01-07T13:34:07;2.17;;;0.70;;
46941;SDS011;32676;52.630;4.896;2024-01-07T13:36:34;4.05;;;0.60;;
46941;SDS011;32676;52.630;4.896;2024-01-07T13:39:01;19.08;;;12.68;;
46941;SDS011;32676;52.630;4.896;2024-01-07T13:41:28;5.65;;;3.30;;
46941;SDS011;32676;52.630;4.896;2024-01-07T13:43:56;2.38;;;0.80;;
46941;SDS011;32676;52.630;4.896;2024-01-07T13:46:24;7.70;;;0.98;;
46941;SDS011;32676;52.630;4.896;2024-01-07T13:48:51;4.15;;;0.73;;
46941;SDS011;32676;52.630;4.896;2024-01-07T13:51:17;2.08;;;1.05;;
46941;SDS011;32676;52.630;4.896;2024-01-07T13:53:44;5.97;;;1.30;;
46941;SDS011;32676;52.630;4.896;2024-01-07T13:56:11;3.80;;;0.98;;
46941;SDS011;32676;52.630;4.896;2024-01-07T13:58:37;3.50;;;0.70;;
46941;SDS011;32676;52.630;4.896;2024-01-07T14:01:04;4.18;;;1.33;;
46941;SDS011;32676;52.630;4.896;2024-01-07T14:03:33;3.30;;;0.80;;
46941;SDS011;32676;52.630;4.896;2024-01-07T14:06:00;2.00;;;0.73;;
46941;SDS011;32676;52.630;4.896;2024-01-07T14:08:26;4.55;;;1.10;;
46941;SDS011;32676;52.630;4.896;2024-01-07T14:10:53;6.25;;;1.00;;
46941;SDS011;32676;52.630;4.896;2024-01-07T14:13:19;9.23;;;3.80;;
46941;SDS011;32676;52.630;4.896;2024-01-07T14:15:47;5.45;;;2.38;;
46941;SDS011;32676;52.630;4.896;2024-01-07T14:18:13;5.40;;;1.15;;
46941;SDS011;32676;52.630;4.896;2024-01-07T14:20:43;2.72;;;1.05;;
46941;SDS011;32676;52.630;4.896;2024-01-07T14:23:10;4.55;;;0.77;;
46941;SDS011;32676;52.630;4.896;2024-01-07T14:25:36;6.97;;;1.33;;
46941;SDS011;32676;52.630;4.896;2024-01-07T14:28:03;3.72;;;0.85;;
46941;SDS011;32676;52.630;4.896;2024-01-07T14:30:30;5.32;;;1.35;;
46941;SDS011;32676;52.630;4.896;2024-01-07T14:32:56;3.90;;;1.63;;
46941;SDS011;32676;52.630;4.896;2024-01-07T14:35:23;2.60;;;1.65;;
46941;SDS011;32676;52.630;4.896;2024-01-07T14:37:52;5.32;;;1.08;;
46941;SDS011;32676;52.630;4.896;2024-01-07T14:40:18;4.78;;;1.20;;
46941;SDS011;32676;52.630;4.896;2024-01-07T14:42:45;5.32;;;1.38;;
46941;SDS011;32676;52.630;4.896;2024-01-07T14:45:12;4.20;;;1.95;;